sensor_id;sensor_type;location;lat;lon;timestamp;P1;durP1;ratioP1;P2;durP2;ratioP2
48588;SDS011;34369;51.174;6.738;2023-10-08T00:00:31;29.88;;;27.75;;
48588;SDS011;34369;51.174;6.738;2023-10-08T00:03:16;30.00;;;27.83;;
48588;SDS011;34369;51.174;6.738;2023-10-08T00:05:49;30.20;;;28.10;;
48588;SDS011;34369;51.174;6.738;2023-10-08T00:08:21;29.80;;;27.60;;
48588;SDS011;34369;51.174;6.738;2023-10-08T00:10:53;29.75;;;27.67;;
48588;SDS011;34369;51.174;6.738;2023-10-08T00:13:35;30.17;;;28.05;;
48588;SDS011;34369;51.174;6.738;2023-10-08T00:16:13;30.13;;;27.95;;
48588;SDS011;34369;51.174;6.738;2023-10-08T00:18:47;30.02;;;27.98;;
48588;SDS011;34369;51.174;6.738;2023-10-08T00:21:21;29.45;;;27.45;;
48588;SDS011;34369;51.174;6.738;2023-10-08T00:23:56;30.10;;;27.83;;
48588;SDS011;34369;51.174;6.738;2023-10-08T00:26:29;29.38;;;27.38;;
48588;SDS011;34369;51.174;6.738;2023-10-08T00:29:02;29.85;;;27.65;;
48588;SDS011;34369;51.174;6.738;2023-10-08T00:31:47;30.00;;;27.70;;
48588;SDS011;34369;51.174;6.738;2023-10-08T00:34:20;29.23;;;27.05;;
48588;SDS011;34369;51.174;6.738;2023-10-08T00:36:53;29.13;;;27.02;;
48588;SDS011;34369;51.174;6.738;2023-10-08T00:39:25;29.98;;;27.50;;
48588;SDS011;34369;51.174;6.738;2023-10-08T00:42:04;29.05;;;27.00;;
48588;SDS011;34369;51.174;6.738;2023-10-08T00:44:38;28.75;;;26.75;;
48588;SDS011;34369;51.174;6.738;2023-10-08T00:47:20;28.52;;;26.42;;
48588;SDS011;34369;51.174;6.738;2023-10-08T00:49:56;29.20;;;27.27;;
48588;SDS011;34369;51.174;6.738;2023-10-08T00:52:38;29.20;;;27.05;;
48588;SDS011;34369;51.174;6.738;2023-10-08T00:55:12;29.27;;;27.10;;
48588;SDS011;34369;51.174;6.738;2023-10-08T00:57:52;28.98;;;26.95;;
48588;SDS011;34369;51.174;6.738;2023-10-08T01:00:38;29.92;;;27.83;;
48588;SDS011;34369;51.174;6.738;2023-10-08T01:03:13;30.17;;;28.08;;
48588;SDS011;34369;51.174;6.738;2023-10-08T01:05:46;30.77;;;28.55;;
48588;SDS011;34369;51.174;6.738;2023-10-08T01:08:19;29.45;;;27.35;;
48588;SDS011;34369;51.174;6.738;2023-10-08T01:11:18;29.92;;;27.83;;
48588;SDS011;34369;51.174;6.738;2023-10-08T01:14:01;30.05;;;28.05;;
48588;SDS011;34369;51.174;6.738;2023-10-08T01:16:37;30.65;;;28.42;;
48588;SDS011;34369;51.174;6.738;2023-10-08T01:19:28;29.90;;;27.73;;
48588;SDS011;34369;51.174;6.738;2023-10-08T01:22:12;31.13;;;28.77;;
48588;SDS011;34369;51.174;6.738;2023-10-08T01:24:48;31.00;;;28.63;;
48588;SDS011;34369;51.174;6.738;2023-10-08T01:27:21;29.95;;;27.85;;
48588;SDS011;34369;51.174;6.738;2023-10-08T01:29:54;29.50;;;27.50;;
48588;SDS011;34369;51.174;6.738;2023-10-08T01:32:38;29.58;;;27.48;;
48588;SDS011;34369;51.174;6.738;2023-10-08T01:35:13;30.10;;;28.00;;
48588;SDS011;34369;51.174;6.738;2023-10-08T01:37:54;29.63;;;27.40;;
48588;SDS011;34369;51.174;6.738;2023-10-08T01:40:29;30.23;;;28.05;;
48588;SDS011;34369;51.174;6.738;2023-10-08T01:43:03;30.10;;;28.10;;
48588;SDS011;34369;51.174;6.738;2023-10-08T01:45:36;29.52;;;27.42;;
48588;SDS011;34369;51.174;6.738;2023-10-08T01:48:11;30.23;;;28.02;;
48588;SDS011;34369;51.174;6.738;2023-10-08T01:50:43;30.42;;;28.10;;
48588;SDS011;34369;51.174;6.738;2023-10-08T01:53:19;30.08;;;27.98;;
48588;SDS011;34369;51.174;6.738;2023-10-08T01:55:52;30.25;;;28.08;;
48588;SDS011;34369;51.174;6.738;2023-10-08T01:58:25;32.17;;;29.88;;
48588;SDS011;34369;51.174;6.738;2023-10-08T02:00:57;31.23;;;29.02;;
48588;SDS011;34369;51.174;6.738;2023-10-08T02:03:30;30.75;;;28.55;;
48588;SDS011;34369;51.174;6.738;2023-10-08T02:06:03;30.90;;;28.75;;
48588;SDS011;34369;51.174;6.738;2023-10-08T02:08:40;31.08;;;28.88;;
48588;SDS011;34369;51.174;6.738;2023-10-08T02:11:12;30.27;;;28.17;;
48588;SDS011;34369;51.174;6.738;2023-10-08T02:13:46;31.33;;;29.08;;
48588;SDS011;34369;51.174;6.738;2023-10-08T02:16:18;31.02;;;28.83;;
48588;SDS011;34369;51.174;6.738;2023-10-08T02:18:52;30.95;;;28.85;;
48588;SDS011;34369;51.174;6.738;2023-10-08T02:21:25;30.90;;;28.80;;
48588;SDS011;34369;51.174;6.738;2023-10-08T02:24:00;31.02;;;28.83;;
48588;SDS011;34369;51.174;6.738;2023-10-08T02:26:33;30.88;;;28.77;;
48588;SDS011;34369;51.174;6.738;2023-10-08T02:29:06;29.77;;;27.65;;
48588;SDS011;34369;51.174;6.738;2023-10-08T02:31:41;31.10;;;28.98;;
48588;SDS011;34369;51.174;6.738;2023-10-08T02:34:14;30.48;;;28.38;;
48588;SDS011;34369;51.174;6.738;2023-10-08T02:36:46;31.05;;;28.95;;
48588;SDS011;34369;51.174;6.738;2023-10-08T02:39:20;30.15;;;28.05;;
48588;SDS011;34369;51.174;6.738;2023-10-08T02:41:55;31.67;;;29.30;;
48588;SDS011;34369;51.174;6.738;2023-10-08T02:44:29;30.20;;;28.10;;
48588;SDS011;34369;51.174;6.738;2023-10-08T02:47:02;29.65;;;27.30;;
48588;SDS011;34369;51.174;6.738;2023-10-08T02:49:38;30.73;;;28.52;;
48588;SDS011;34369;51.174;6.738;2023-10-08T02:52:12;30.48;;;28.33;;
48588;SDS011;34369;51.174;6.738;2023-10-08T02:54:47;30.67;;;28.48;;
48588;SDS011;34369;51.174;6.738;2023-10-08T02:57:22;29.80;;;27.70;;
48588;SDS011;34369;51.174;6.738;2023-10-08T02:59:57;30.40;;;28.30;;
48588;SDS011;34369;51.174;6.738;2023-10-08T03:02:29;29.90;;;27.90;;
48588;SDS011;34369;51.174;6.738;2023-10-08T03:05:04;31.25;;;28.98;;
48588;SDS011;34369;51.174;6.738;2023-10-08T03:07:43;30.80;;;28.67;;
48588;SDS011;34369;51.174;6.738;2023-10-08T03:10:17;30.08;;;27.98;;
48588;SDS011;34369;51.174;6.738;2023-10-08T03:12:49;31.35;;;29.13;;
48588;SDS011;34369;51.174;6.738;2023-10-08T03:15:21;30.17;;;28.08;;
48588;SDS011;34369;51.174;6.738;2023-10-08T03:17:59;31.02;;;28.83;;
48588;SDS011;34369;51.174;6.738;2023-10-08T03:20:40;30.42;;;28.23;;
48588;SDS011;34369;51.174;6.738;2023-10-08T03:23:18;30.38;;;28.13;;
48588;SDS011;34369;51.174;6.738;2023-10-08T03:25:56;30.90;;;28.80;;
48588;SDS011;34369;51.174;6.738;2023-10-08T03:28:31;30.70;;;28.50;;
48588;SDS011;34369;51.174;6.738;2023-10-08T03:31:05;30.65;;;28.45;;
48588;SDS011;34369;51.174;6.738;2023-10-08T03:33:44;30.02;;;27.67;;
48588;SDS011;34369;51.174;6.738;2023-10-08T03:36:19;31.02;;;28.73;;
48588;SDS011;34369;51.174;6.738;2023-10-08T03:39:04;31.65;;;29.17;;
48588;SDS011;34369;51.174;6.738;2023-10-08T03:41:44;30.15;;;28.05;;
48588;SDS011;34369;51.174;6.738;2023-10-08T03:44:29;31.05;;;28.95;;
48588;SDS011;34369;51.174;6.738;2023-10-08T03:47:02;31.65;;;29.45;;
48588;SDS011;34369;51.174;6.738;2023-10-08T03:49:40;31.17;;;29.02;;
48588;SDS011;34369;51.174;6.738;2023-10-08T03:52:15;29.90;;;27.85;;
48588;SDS011;34369;51.174;6.738;2023-10-08T03:54:52;31.08;;;28.75;;
48588;SDS011;34369;51.174;6.738;2023-10-08T03:57:36;30.80;;;28.50;;
48588;SDS011;34369;51.174;6.738;2023-10-08T04:00:18;31.42;;;29.23;;
48588;SDS011;34369;51.174;6.738;2023-10-08T04:02:58;31.02;;;28.83;;
48588;SDS011;34369;51.174;6.738;2023-10-08T04:05:38;30.70;;;28.50;;
48588;SDS011;34369;51.174;6.738;2023-10-08T04:08:29;31.27;;;28.98;;
48588;SDS011;34369;51.174;6.738;2023-10-08T04:11:13;31.98;;;29.52;;
48588;SDS011;34369;51.174;6.738;2023-10-08T04:14:02;30.75;;;28.48;;
48588;SDS011;34369;51.174;6.738;2023-10-08T04:16:35;30.77;;;28.58;;
48588;SDS011;34369;51.174;6.738;2023-10-08T04:19:08;30.63;;;28.42;;
48588;SDS011;34369;51.174;6.738;2023-10-08T04:21:41;30.63;;;28.40;;
48588;SDS011;34369;51.174;6.738;2023-10-08T04:24:13;30.92;;;28.80;;
48588;SDS011;34369;51.174;6.738;2023-10-08T04:26:49;31.00;;;28.90;;
48588;SDS011;34369;51.174;6.738;2023-10-08T04:29:23;30.48;;;28.27;;
48588;SDS011;34369;51.174;6.738;2023-10-08T04:31:56;31.00;;;28.70;;
48588;SDS011;34369;51.174;6.738;2023-10-08T04:34:37;31.27;;;29.10;;
48588;SDS011;34369;51.174;6.738;2023-10-08T04:37:14;31.48;;;29.05;;
48588;SDS011;34369;51.174;6.738;2023-10-08T04:39:50;30.75;;;28.45;;
48588;SDS011;34369;51.174;6.738;2023-10-08T04:42:29;31.08;;;28.98;;
48588;SDS011;34369;51.174;6.738;2023-10-08T04:45:04;31.38;;;29.17;;
48588;SDS011;34369;51.174;6.738;2023-10-08T04:47:41;31.08;;;28.95;;
48588;SDS011;34369;51.174;6.738;2023-10-08T04:50:14;30.23;;;28.13;;
48588;SDS011;34369;51.174;6.738;2023-10-08T04:52:51;30.38;;;28.08;;
48588;SDS011;34369;51.174;6.738;2023-10-08T04:55:28;30.45;;;28.35;;
48588;SDS011;34369;51.174;6.738;2023-10-08T04:58:01;31.02;;;28.92;;
48588;SDS011;34369;51.174;6.738;2023-10-08T05:00:43;31.10;;;28.90;;
48588;SDS011;34369;51.174;6.738;2023-10-08T05:03:23;31.70;;;29.50;;
48588;SDS011;34369;51.174;6.738;2023-10-08T05:06:02;31.13;;;29.02;;
48588;SDS011;34369;51.174;6.738;2023-10-08T05:08:39;31.00;;;28.85;;
48588;SDS011;34369;51.174;6.738;2023-10-08T05:11:26;31.90;;;29.65;;
48588;SDS011;34369;51.174;6.738;2023-10-08T05:14:16;32.10;;;29.80;;
48588;SDS011;34369;51.174;6.738;2023-10-08T05:17:07;31.38;;;29.17;;
48588;SDS011;34369;51.174;6.738;2023-10-08T05:19:52;31.48;;;29.20;;
48588;SDS011;34369;51.174;6.738;2023-10-08T05:22:47;32.08;;;29.80;;
48588;SDS011;34369;51.174;6.738;2023-10-08T05:25:25;32.15;;;29.77;;
48588;SDS011;34369;51.174;6.738;2023-10-08T05:28:10;32.05;;;29.77;;
48588;SDS011;34369;51.174;6.738;2023-10-08T05:30:54;32.22;;;29.92;;
48588;SDS011;34369;51.174;6.738;2023-10-08T05:33:43;31.95;;;29.20;;
48588;SDS011;34369;51.174;6.738;2023-10-08T05:36:30;32.17;;;29.85;;
48588;SDS011;34369;51.174;6.738;2023-10-08T05:39:21;31.35;;;29.15;;
48588;SDS011;34369;51.174;6.738;2023-10-08T05:42:02;31.35;;;29.15;;
48588;SDS011;34369;51.174;6.738;2023-10-08T05:44:43;32.42;;;30.13;;
48588;SDS011;34369;51.174;6.738;2023-10-08T05:47:16;31.90;;;29.60;;
48588;SDS011;34369;51.174;6.738;2023-10-08T05:50:10;31.48;;;29.02;;
48588;SDS011;34369;51.174;6.738;2023-10-08T05:53:09;32.45;;;30.10;;
48588;SDS011;34369;51.174;6.738;2023-10-08T05:56:12;31.40;;;29.23;;
48588;SDS011;34369;51.174;6.738;2023-10-08T05:58:59;32.03;;;29.73;;
48588;SDS011;34369;51.174;6.738;2023-10-08T06:01:45;31.77;;;29.45;;
48588;SDS011;34369;51.174;6.738;2023-10-08T06:04:29;31.52;;;29.27;;
48588;SDS011;34369;51.174;6.738;2023-10-08T06:07:26;31.50;;;29.20;;
48588;SDS011;34369;51.174;6.738;2023-10-08T06:12:59;32.03;;;29.83;;
48588;SDS011;34369;51.174;6.738;2023-10-08T06:15:36;32.70;;;30.38;;
48588;SDS011;34369;51.174;6.738;2023-10-08T06:18:18;31.92;;;29.63;;
48588;SDS011;34369;51.174;6.738;2023-10-08T06:20:56;31.63;;;29.33;;
48588;SDS011;34369;51.174;6.738;2023-10-08T06:23:41;32.25;;;29.98;;
48588;SDS011;34369;51.174;6.738;2023-10-08T06:26:16;31.75;;;29.55;;
48588;SDS011;34369;51.174;6.738;2023-10-08T06:28:51;31.10;;;29.00;;
48588;SDS011;34369;51.174;6.738;2023-10-08T06:31:28;31.30;;;29.10;;
48588;SDS011;34369;51.174;6.738;2023-10-08T06:34:05;31.33;;;28.92;;
48588;SDS011;34369;51.174;6.738;2023-10-08T06:36:43;31.40;;;29.05;;
48588;SDS011;34369;51.174;6.738;2023-10-08T06:39:20;31.88;;;29.67;;
48588;SDS011;34369;51.174;6.738;2023-10-08T06:42:03;31.42;;;29.20;;
48588;SDS011;34369;51.174;6.738;2023-10-08T06:44:38;31.38;;;29.08;;
48588;SDS011;34369;51.174;6.738;2023-10-08T06:47:15;31.33;;;29.13;;
48588;SDS011;34369;51.174;6.738;2023-10-08T06:49:49;30.75;;;28.63;;
48588;SDS011;34369;51.174;6.738;2023-10-08T06:52:25;31.35;;;29.15;;
48588;SDS011;34369;51.174;6.738;2023-10-08T06:55:02;31.80;;;29.50;;
48588;SDS011;34369;51.174;6.738;2023-10-08T06:57:41;32.00;;;29.70;;
48588;SDS011;34369;51.174;6.738;2023-10-08T07:00:15;31.52;;;29.10;;
48588;SDS011;34369;51.174;6.738;2023-10-08T07:03:08;30.98;;;28.70;;
48588;SDS011;34369;51.174;6.738;2023-10-08T07:05:46;30.23;;;28.02;;
48588;SDS011;34369;51.174;6.738;2023-10-08T07:08:28;31.30;;;29.00;;
48588;SDS011;34369;51.174;6.738;2023-10-08T07:11:07;31.02;;;28.73;;
48588;SDS011;34369;51.174;6.738;2023-10-08T07:13:41;31.40;;;29.10;;
48588;SDS011;34369;51.174;6.738;2023-10-08T07:16:15;30.33;;;28.15;;
48588;SDS011;34369;51.174;6.738;2023-10-08T07:18:49;30.25;;;28.05;;
48588;SDS011;34369;51.174;6.738;2023-10-08T07:21:25;30.65;;;28.55;;
48588;SDS011;34369;51.174;6.738;2023-10-08T07:24:08;30.67;;;28.58;;
48588;SDS011;34369;51.174;6.738;2023-10-08T07:26:47;31.58;;;29.25;;
48588;SDS011;34369;51.174;6.738;2023-10-08T07:29:27;30.77;;;28.60;;
48588;SDS011;34369;51.174;6.738;2023-10-08T07:32:00;31.08;;;28.92;;
48588;SDS011;34369;51.174;6.738;2023-10-08T07:34:40;30.63;;;28.30;;
48588;SDS011;34369;51.174;6.738;2023-10-08T07:37:14;30.30;;;28.20;;
48588;SDS011;34369;51.174;6.738;2023-10-08T07:39:47;30.38;;;28.30;;
48588;SDS011;34369;51.174;6.738;2023-10-08T07:42:27;30.02;;;27.83;;
48588;SDS011;34369;51.174;6.738;2023-10-08T07:45:01;30.35;;;28.20;;
48588;SDS011;34369;51.174;6.738;2023-10-08T07:47:35;30.27;;;27.88;;
48588;SDS011;34369;51.174;6.738;2023-10-08T07:50:09;30.10;;;27.90;;
48588;SDS011;34369;51.174;6.738;2023-10-08T07:52:42;30.67;;;28.58;;
48588;SDS011;34369;51.174;6.738;2023-10-08T07:55:16;30.70;;;28.50;;
48588;SDS011;34369;51.174;6.738;2023-10-08T07:57:51;29.92;;;27.83;;
48588;SDS011;34369;51.174;6.738;2023-10-08T08:00:24;30.30;;;28.00;;
48588;SDS011;34369;51.174;6.738;2023-10-08T08:03:00;30.25;;;28.05;;
48588;SDS011;34369;51.174;6.738;2023-10-08T08:05:35;30.13;;;27.92;;
48588;SDS011;34369;51.174;6.738;2023-10-08T08:08:10;30.55;;;28.42;;
48588;SDS011;34369;51.174;6.738;2023-10-08T08:10:48;30.98;;;28.67;;
48588;SDS011;34369;51.174;6.738;2023-10-08T08:13:29;30.40;;;28.00;;
48588;SDS011;34369;51.174;6.738;2023-10-08T08:16:03;30.23;;;28.05;;
48588;SDS011;34369;51.174;6.738;2023-10-08T08:18:48;31.17;;;28.88;;
48588;SDS011;34369;51.174;6.738;2023-10-08T08:21:25;30.17;;;27.95;;
48588;SDS011;34369;51.174;6.738;2023-10-08T08:24:00;30.25;;;28.13;;
48588;SDS011;34369;51.174;6.738;2023-10-08T08:26:35;30.48;;;27.98;;
48588;SDS011;34369;51.174;6.738;2023-10-08T08:29:17;30.08;;;27.90;;
48588;SDS011;34369;51.174;6.738;2023-10-08T08:31:50;30.67;;;28.30;;
48588;SDS011;34369;51.174;6.738;2023-10-08T08:34:27;29.77;;;27.50;;
48588;SDS011;34369;51.174;6.738;2023-10-08T08:36:59;29.92;;;27.63;;
48588;SDS011;34369;51.174;6.738;2023-10-08T08:39:32;31.08;;;28.67;;
48588;SDS011;34369;51.174;6.738;2023-10-08T08:42:07;30.88;;;28.25;;
48588;SDS011;34369;51.174;6.738;2023-10-08T08:44:43;30.60;;;28.40;;
48588;SDS011;34369;51.174;6.738;2023-10-08T08:47:17;29.95;;;27.55;;
48588;SDS011;34369;51.174;6.738;2023-10-08T08:49:55;29.65;;;27.35;;
48588;SDS011;34369;51.174;6.738;2023-10-08T08:52:38;30.75;;;28.25;;
48588;SDS011;34369;51.174;6.738;2023-10-08T08:55:12;30.10;;;27.85;;
48588;SDS011;34369;51.174;6.738;2023-10-08T08:57:47;30.98;;;28.30;;
48588;SDS011;34369;51.174;6.738;2023-10-08T09:00:24;29.77;;;27.58;;
48588;SDS011;34369;51.174;6.738;2023-10-08T09:03:01;29.80;;;27.45;;
48588;SDS011;34369;51.174;6.738;2023-10-08T09:05:36;30.95;;;28.25;;
48588;SDS011;34369;51.174;6.738;2023-10-08T09:08:11;31.90;;;29.02;;
48588;SDS011;34369;51.174;6.738;2023-10-08T09:10:47;30.33;;;27.92;;
48588;SDS011;34369;51.174;6.738;2023-10-08T09:13:22;30.88;;;28.08;;
48588;SDS011;34369;51.174;6.738;2023-10-08T09:15:58;31.45;;;28.75;;
48588;SDS011;34369;51.174;6.738;2023-10-08T09:18:41;31.25;;;28.73;;
48588;SDS011;34369;51.174;6.738;2023-10-08T09:21:15;30.83;;;28.42;;
48588;SDS011;34369;51.174;6.738;2023-10-08T09:23:53;30.38;;;28.08;;
48588;SDS011;34369;51.174;6.738;2023-10-08T09:26:26;30.85;;;27.77;;
48588;SDS011;34369;51.174;6.738;2023-10-08T09:28:59;30.63;;;27.90;;
48588;SDS011;34369;51.174;6.738;2023-10-08T09:31:35;30.65;;;28.05;;
48588;SDS011;34369;51.174;6.738;2023-10-08T09:34:08;31.73;;;28.75;;
48588;SDS011;34369;51.174;6.738;2023-10-08T09:36:42;35.60;;;32.08;;
48588;SDS011;34369;51.174;6.738;2023-10-08T09:39:17;33.30;;;30.30;;
48588;SDS011;34369;51.174;6.738;2023-10-08T09:41:53;32.60;;;29.77;;
48588;SDS011;34369;51.174;6.738;2023-10-08T09:44:29;32.35;;;29.08;;
48588;SDS011;34369;51.174;6.738;2023-10-08T09:47:05;31.65;;;28.85;;
48588;SDS011;34369;51.174;6.738;2023-10-08T09:49:41;31.55;;;28.83;;
48588;SDS011;34369;51.174;6.738;2023-10-08T09:52:23;32.47;;;29.70;;
48588;SDS011;34369;51.174;6.738;2023-10-08T09:55:07;32.30;;;29.40;;
48588;SDS011;34369;51.174;6.738;2023-10-08T09:57:41;31.80;;;29.00;;
48588;SDS011;34369;51.174;6.738;2023-10-08T10:00:14;31.10;;;28.13;;
48588;SDS011;34369;51.174;6.738;2023-10-08T10:03:00;32.80;;;29.27;;
48588;SDS011;34369;51.174;6.738;2023-10-08T10:05:35;30.67;;;27.77;;
48588;SDS011;34369;51.174;6.738;2023-10-08T10:08:10;31.17;;;28.17;;
48588;SDS011;34369;51.174;6.738;2023-10-08T10:10:44;31.20;;;28.10;;
48588;SDS011;34369;51.174;6.738;2023-10-08T10:13:18;32.35;;;29.33;;
48588;SDS011;34369;51.174;6.738;2023-10-08T10:15:59;31.65;;;28.60;;
48588;SDS011;34369;51.174;6.738;2023-10-08T10:18:34;31.08;;;28.20;;
48588;SDS011;34369;51.174;6.738;2023-10-08T10:21:26;32.38;;;29.58;;
48588;SDS011;34369;51.174;6.738;2023-10-08T10:24:03;31.50;;;28.65;;
48588;SDS011;34369;51.174;6.738;2023-10-08T10:26:37;31.25;;;28.38;;
48588;SDS011;34369;51.174;6.738;2023-10-08T10:29:19;31.90;;;28.70;;
48588;SDS011;34369;51.174;6.738;2023-10-08T10:31:53;30.60;;;28.00;;
48588;SDS011;34369;51.174;6.738;2023-10-08T10:34:30;30.33;;;27.63;;
48588;SDS011;34369;51.174;6.738;2023-10-08T10:37:05;30.98;;;28.42;;
48588;SDS011;34369;51.174;6.738;2023-10-08T10:39:52;31.77;;;28.40;;
48588;SDS011;34369;51.174;6.738;2023-10-08T10:42:30;32.03;;;29.05;;
48588;SDS011;34369;51.174;6.738;2023-10-08T10:45:13;31.52;;;28.65;;
48588;SDS011;34369;51.174;6.738;2023-10-08T10:48:06;31.90;;;29.10;;
48588;SDS011;34369;51.174;6.738;2023-10-08T10:50:45;31.63;;;28.55;;
48588;SDS011;34369;51.174;6.738;2023-10-08T10:53:35;31.48;;;28.50;;
48588;SDS011;34369;51.174;6.738;2023-10-08T10:56:14;31.48;;;28.38;;
48588;SDS011;34369;51.174;6.738;2023-10-08T10:58:49;32.00;;;28.63;;
48588;SDS011;34369;51.174;6.738;2023-10-08T11:01:26;32.58;;;28.92;;
48588;SDS011;34369;51.174;6.738;2023-10-08T11:04:00;30.80;;;27.83;;
48588;SDS011;34369;51.174;6.738;2023-10-08T11:06:37;30.05;;;27.35;;
48588;SDS011;34369;51.174;6.738;2023-10-08T11:09:10;31.23;;;28.25;;
48588;SDS011;34369;51.174;6.738;2023-10-08T11:11:47;30.42;;;27.77;;
48588;SDS011;34369;51.174;6.738;2023-10-08T11:14:25;30.77;;;27.88;;
48588;SDS011;34369;51.174;6.738;2023-10-08T11:16:59;31.27;;;28.30;;
48588;SDS011;34369;51.174;6.738;2023-10-08T11:19:41;31.58;;;28.38;;
48588;SDS011;34369;51.174;6.738;2023-10-08T11:22:18;29.83;;;27.10;;
48588;SDS011;34369;51.174;6.738;2023-10-08T11:24:53;33.40;;;29.77;;
48588;SDS011;34369;51.174;6.738;2023-10-08T11:27:27;31.55;;;28.65;;
48588;SDS011;34369;51.174;6.738;2023-10-08T11:30:06;30.60;;;27.67;;
48588;SDS011;34369;51.174;6.738;2023-10-08T11:32:41;31.05;;;28.15;;
48588;SDS011;34369;51.174;6.738;2023-10-08T11:35:18;31.50;;;28.15;;
48588;SDS011;34369;51.174;6.738;2023-10-08T11:37:57;30.55;;;27.75;;
48588;SDS011;34369;51.174;6.738;2023-10-08T11:40:33;31.17;;;28.35;;
48588;SDS011;34369;51.174;6.738;2023-10-08T11:43:19;31.38;;;28.38;;
48588;SDS011;34369;51.174;6.738;2023-10-08T11:45:52;30.98;;;28.08;;
48588;SDS011;34369;51.174;6.738;2023-10-08T11:48:25;32.55;;;29.33;;
48588;SDS011;34369;51.174;6.738;2023-10-08T11:50:59;32.13;;;29.13;;
48588;SDS011;34369;51.174;6.738;2023-10-08T11:53:37;34.00;;;29.02;;
48588;SDS011;34369;51.174;6.738;2023-10-08T11:56:09;31.25;;;28.10;;
48588;SDS011;34369;51.174;6.738;2023-10-08T11:58:45;32.27;;;29.30;;
48588;SDS011;34369;51.174;6.738;2023-10-08T12:01:18;31.83;;;28.83;;
48588;SDS011;34369;51.174;6.738;2023-10-08T12:03:51;31.73;;;28.73;;
48588;SDS011;34369;51.174;6.738;2023-10-08T12:06:29;32.47;;;29.45;;
48588;SDS011;34369;51.174;6.738;2023-10-08T12:09:05;32.33;;;29.25;;
48588;SDS011;34369;51.174;6.738;2023-10-08T12:11:43;31.27;;;27.88;;
48588;SDS011;34369;51.174;6.738;2023-10-08T12:14:17;32.25;;;29.25;;
48588;SDS011;34369;51.174;6.738;2023-10-08T12:16:50;33.05;;;29.80;;
48588;SDS011;34369;51.174;6.738;2023-10-08T12:19:22;33.75;;;29.00;;
48588;SDS011;34369;51.174;6.738;2023-10-08T12:21:56;31.45;;;28.35;;
48588;SDS011;34369;51.174;6.738;2023-10-08T12:24:35;33.65;;;30.40;;
48588;SDS011;34369;51.174;6.738;2023-10-08T12:27:08;33.13;;;29.77;;
48588;SDS011;34369;51.174;6.738;2023-10-08T12:29:43;32.08;;;29.13;;
48588;SDS011;34369;51.174;6.738;2023-10-08T12:32:17;32.90;;;29.60;;
48588;SDS011;34369;51.174;6.738;2023-10-08T12:34:56;31.67;;;28.55;;
48588;SDS011;34369;51.174;6.738;2023-10-08T12:37:30;31.92;;;29.00;;
48588;SDS011;34369;51.174;6.738;2023-10-08T12:40:08;32.28;;;29.33;;
48588;SDS011;34369;51.174;6.738;2023-10-08T12:42:52;32.33;;;29.50;;
48588;SDS011;34369;51.174;6.738;2023-10-08T12:45:25;33.53;;;30.13;;
48588;SDS011;34369;51.174;6.738;2023-10-08T12:48:01;33.47;;;30.38;;
48588;SDS011;34369;51.174;6.738;2023-10-08T12:50:35;33.90;;;30.02;;
48588;SDS011;34369;51.174;6.738;2023-10-08T12:53:13;30.95;;;28.27;;
48588;SDS011;34369;51.174;6.738;2023-10-08T12:55:48;32.47;;;29.05;;
48588;SDS011;34369;51.174;6.738;2023-10-08T12:58:25;32.42;;;29.35;;
48588;SDS011;34369;51.174;6.738;2023-10-08T13:01:00;33.25;;;29.92;;
48588;SDS011;34369;51.174;6.738;2023-10-08T13:03:34;32.58;;;29.38;;
48588;SDS011;34369;51.174;6.738;2023-10-08T13:06:11;30.75;;;27.67;;
48588;SDS011;34369;51.174;6.738;2023-10-08T13:08:52;31.88;;;28.73;;
48588;SDS011;34369;51.174;6.738;2023-10-08T13:11:27;31.27;;;28.20;;
48588;SDS011;34369;51.174;6.738;2023-10-08T13:14:04;30.95;;;28.05;;
48588;SDS011;34369;51.174;6.738;2023-10-08T13:16:38;31.80;;;28.40;;
48588;SDS011;34369;51.174;6.738;2023-10-08T13:19:11;30.48;;;27.70;;
48588;SDS011;34369;51.174;6.738;2023-10-08T13:21:43;31.65;;;28.60;;
48588;SDS011;34369;51.174;6.738;2023-10-08T13:24:18;32.15;;;28.77;;
48588;SDS011;34369;51.174;6.738;2023-10-08T13:26:53;32.13;;;29.05;;
48588;SDS011;34369;51.174;6.738;2023-10-08T13:29:28;31.02;;;28.00;;
48588;SDS011;34369;51.174;6.738;2023-10-08T13:32:03;31.67;;;28.75;;
48588;SDS011;34369;51.174;6.738;2023-10-08T13:34:36;31.65;;;28.52;;
48588;SDS011;34369;51.174;6.738;2023-10-08T13:37:09;32.13;;;28.98;;
48588;SDS011;34369;51.174;6.738;2023-10-08T13:39:42;32.38;;;28.15;;
48588;SDS011;34369;51.174;6.738;2023-10-08T13:42:16;31.23;;;28.00;;
48588;SDS011;34369;51.174;6.738;2023-10-08T13:44:50;31.17;;;27.92;;
48588;SDS011;34369;51.174;6.738;2023-10-08T13:47:24;31.25;;;28.35;;
48588;SDS011;34369;51.174;6.738;2023-10-08T13:49:58;30.00;;;27.02;;
48588;SDS011;34369;51.174;6.738;2023-10-08T13:52:33;30.65;;;27.80;;
48588;SDS011;34369;51.174;6.738;2023-10-08T13:55:09;29.55;;;26.48;;
48588;SDS011;34369;51.174;6.738;2023-10-08T13:57:45;28.35;;;25.60;;
48588;SDS011;34369;51.174;6.738;2023-10-08T14:00:18;29.33;;;26.55;;
48588;SDS011;34369;51.174;6.738;2023-10-08T14:02:56;29.83;;;27.02;;
48588;SDS011;34369;51.174;6.738;2023-10-08T14:05:29;29.77;;;26.88;;
48588;SDS011;34369;51.174;6.738;2023-10-08T14:08:02;29.02;;;26.33;;
48588;SDS011;34369;51.174;6.738;2023-10-08T14:10:42;29.52;;;26.73;;
48588;SDS011;34369;51.174;6.738;2023-10-08T14:13:17;29.38;;;26.88;;
48588;SDS011;34369;51.174;6.738;2023-10-08T14:15:50;30.00;;;27.08;;
48588;SDS011;34369;51.174;6.738;2023-10-08T14:18:26;28.95;;;26.15;;
48588;SDS011;34369;51.174;6.738;2023-10-08T14:21:07;28.58;;;25.92;;
48588;SDS011;34369;51.174;6.738;2023-10-08T14:23:41;29.67;;;26.88;;
48588;SDS011;34369;51.174;6.738;2023-10-08T14:26:14;28.80;;;26.23;;
48588;SDS011;34369;51.174;6.738;2023-10-08T14:28:53;27.98;;;25.45;;
48588;SDS011;34369;51.174;6.738;2023-10-08T14:31:28;28.60;;;26.10;;
48588;SDS011;34369;51.174;6.738;2023-10-08T14:34:04;27.60;;;25.20;;
48588;SDS011;34369;51.174;6.738;2023-10-08T14:36:49;28.70;;;25.97;;
48588;SDS011;34369;51.174;6.738;2023-10-08T14:39:39;28.52;;;25.92;;
48588;SDS011;34369;51.174;6.738;2023-10-08T14:42:30;28.10;;;25.52;;
48588;SDS011;34369;51.174;6.738;2023-10-08T14:45:21;28.08;;;25.67;;
48588;SDS011;34369;51.174;6.738;2023-10-08T14:47:57;28.42;;;25.92;;
48588;SDS011;34369;51.174;6.738;2023-10-08T14:50:30;28.80;;;26.02;;
48588;SDS011;34369;51.174;6.738;2023-10-08T14:53:03;27.98;;;25.35;;
48588;SDS011;34369;51.174;6.738;2023-10-08T14:55:38;28.38;;;25.80;;
48588;SDS011;34369;51.174;6.738;2023-10-08T14:58:11;28.85;;;26.35;;
48588;SDS011;34369;51.174;6.738;2023-10-08T15:00:46;28.77;;;26.15;;
48588;SDS011;34369;51.174;6.738;2023-10-08T15:03:19;29.77;;;26.98;;
48588;SDS011;34369;51.174;6.738;2023-10-08T15:05:52;29.90;;;27.10;;
48588;SDS011;34369;51.174;6.738;2023-10-08T15:08:25;29.55;;;26.98;;
48588;SDS011;34369;51.174;6.738;2023-10-08T15:10:58;29.02;;;26.33;;
48588;SDS011;34369;51.174;6.738;2023-10-08T15:13:31;29.92;;;27.25;;
48588;SDS011;34369;51.174;6.738;2023-10-08T15:16:10;30.40;;;27.58;;
48588;SDS011;34369;51.174;6.738;2023-10-08T15:18:43;29.83;;;26.93;;
48588;SDS011;34369;51.174;6.738;2023-10-08T15:21:16;29.95;;;27.45;;